Sotirios Mitroglou

Recruteur - Panathinaikos
4 Juin 2028
Dimanche
Processus

Personnalité

Adaptabilité (15) Ambition (4) Controverse (7) Loyauté (10) Pression (9) Professionnalisme (15) Sportivité (7) Tempérament (5)

Profil

Style d'entraînement Démocratique
Diplôme National A
Détermination 9
Gestion des joueurs 7
Motivation 9
Discipline 9
Satisfaction professionnelle
100%
Fatigue
0%
Rôle Recruteur
Salaire 87.3K p/s
Contrat 14.03.2029

Performance

Comportement Bon
Efficacité de l'entraînement
49%
Développement des joueurs
55%
Prévention des blessures
45%
Mise en place tactique
60%

Événements récents

A évalué un joueur maintenant
A évalué un joueur maintenant

Suivi en cours

126
Joueur Club Statut Capacité Confiance Observé Dernière observation Dernier vote
Cundo Leicester City Actif 143 / 138 40% 2 01.06.2028 -
Martin Frýdek Aris Thessaloniki Perdu 103 / 108 69% 1 01.06.2028 -
Gustavo Hamer Sheffield United Actif 144 / 140 40% 1 01.06.2028 -
Bojan Kovačević Cádiz Actif 138 / 139 40% 1 01.06.2028 -
Daijiro Chirino Almería Actif 143 / 132 40% 1 01.06.2028 -
Jorge Salinas Racing Santander Actif 129 / 136 40% 1 01.06.2028 -
Igor Tyjon Salford City Actif 110 / 120 40% 1 01.06.2028 -
Pedro Zenit Actif 131 / 144 40% 2 30.01.2028 -
Keny Arroyo Cruzeiro Actif 131 / 128 40% 2 30.01.2028 -
Christos Loukaidis AE Kition Actif 99 / 104 40% 1 30.01.2028 -
Dilan Godoy Vélez Actif 104 / 121 40% 3 28.01.2028 -
Henrique Carmo CSKA Moscow Actif 135 / 138 40% 4 28.01.2028 -
André Miranda Porto Actif 115 / 114 40% 1 28.01.2028 -
Lander Astiazarán Real Sociedad Actif 108 / 111 40% 3 27.01.2028 -
Mateus Mané Wolverhampton Actif 141 / 146 40% 1 24.01.2028 -
Diego Medina Cortulua Actif 102 / 115 40% 2 20.01.2028 -
Gabriel Lopes Santiago Wanderers Actif 103 / 102 40% 1 20.01.2028 -
Marcelo Ryan FC Tokyo Actif 133 / 126 40% 1 17.01.2028 -
Sorriso Famalicao Actif 136 / 130 40% 1 17.01.2028 -
Luciano Cosentino Vegalta Sendai Actif 136 / 122 40% 1 17.01.2028 -
José Devecchi San Lorenzo Actif 116 / 115 40% 1 10.01.2028 -
Álex Remiro Real Sociedad Actif 157 / 151 40% 1 10.01.2028 -
Luke Baartman Ghazl El Mahalla Actif 119 / 125 40% 2 07.01.2028 -
Kein Sato FC Tokyo Actif 123 / 132 40% 1 01.01.2028 -
Josh Sargent Toronto FC Actif 122 / 124 40% 1 01.01.2028 -
Teo Rodríguez Pagano San Lorenzo Actif 122 / 124 40% 1 28.08.2027 -
Serge Daura Dynamo Douala Actif 101 / 104 40% 1 26.08.2027 -
Didier Dawson Envigado Actif 113 / 104 40% 1 26.08.2027 -
Wilmar Borja La Equidad Actif 110 / 103 40% 1 25.08.2027 -
Sadriddin Hasanov Bunyodkor Actif 105 / 98 40% 1 25.08.2027 -
Yojan Garcés America de Cali Actif 118 / 125 40% 1 23.08.2027 -
Sunusi Ibrahim Hapoel Tel Aviv Actif 115 / 107 40% 1 23.08.2027 -
Giannis Theodosoulakis OFI Actif 118 / 131 40% 1 23.08.2027 -
Agustín Venezia Iquique Actif 109 / 117 40% 2 22.08.2027 -
Adrian Svanbäck BK Hacken Actif 112 / 127 40% 1 22.08.2027 -
Jovon Makama Orlando City Actif 129 / 132 40% 2 20.08.2027 -
Adar Ratner Maccabi Petach Tikva Actif 97 / 114 40% 1 20.08.2027 -
Araphat Mohammed Ashanti Gold Actif 102 / 107 40% 2 19.08.2027 -
Otto Stange Hamburger SV Actif 122 / 120 40% 2 18.08.2027 -
Pablo Suárez Rentistas Actif 98 / 106 40% 1 18.08.2027 -
Alphadjo Cissé Hellas Verona Actif 133 / 138 40% 1 18.08.2027 -
Frederik Ihler IF Elfsborg Actif 101 / 116 40% 1 17.08.2027 -
Musa Malik Ikorodu City Actif 84 / 103 40% 1 14.08.2027 -
Jonathan Asp-Jensen Deportivo La Coruña Actif 129 / 135 40% 1 14.08.2027 -
Mattia Rutigliano Pro Vercelli Actif 97 / 113 40% 2 12.08.2027 -
Maren Kefas Plateau United Actif 86 / 101 40% 1 12.08.2027 -
Stiven Shpendi Empoli Actif 125 / 118 40% 5 11.08.2027 -
Agustín Ruberto River Plate Actif 114 / 134 40% 1 11.08.2027 -
Miguel Figueiredo Benfica Actif 122 / 125 40% 1 09.08.2027 -
Mateo Silvetti New England Revolution Actif 115 / 121 40% 2 08.08.2027 -
Sascha Britschgi Fiorentina Actif 128 / 129 40% 2 06.08.2027 -
Morgan Dala New York Red Bulls Actif 120 / 132 40% 1 06.08.2027 -
Federico Coletta Benfica Actif 110 / 107 40% 1 05.08.2027 -
Gorka Gorosabel Real Sociedad Actif 109 / 117 40% 4 03.08.2027 -
Tommaso Ravaglioli AlbinoLeffe Actif 89 / 103 40% 1 03.08.2027 -
Gonçalo Sousa Porto Actif 117 / 130 40% 1 03.08.2027 -
Mohamadou Kanté West Ham United Actif 116 / 133 40% 3 30.07.2027 -
Marco Oroná Antofagasta Actif 90 / 108 40% 2 30.07.2027 -
Daniel Kelly West Ham United Actif 111 / 117 40% 1 30.07.2027 -
Martim Cunha Porto Actif 106 / 116 40% 2 24.07.2027 -
Herba Guirassy Monaco Actif 125 / 135 40% 1 24.07.2027 -
Tiago Freitas Benfica Actif 111 / 117 40% 2 23.07.2027 -
Wilfred Correa Caracas Actif 98 / 94 40% 1 23.07.2027 -
Jorge Meireles AVS Actif 109 / 123 40% 3 22.07.2027 -
Alan Coria Villarreal Actif 106 / 114 40% 3 20.07.2027 -
Joel Canchimbo Barranquilla Actif 114 / 122 40% 2 20.07.2027 -
Samed Baždar Sint-Truiden Actif 139 / 126 40% 2 18.07.2027 -
Rocco Vata Watford Actif 127 / 131 40% 1 18.07.2027 -
Jonathan Rowe Bologna Actif 134 / 142 40% 1 18.07.2027 -
Yaghoub Barage Persepolis Actif 116 / 113 40% 1 18.07.2027 -
Lautaro Millán Independiente Actif 119 / 124 40% 2 17.07.2027 -
Matheus Gonçalves Al-Ahli Actif 137 / 143 40% 1 17.07.2027 -
Job Ochieng Real Sociedad Actif 107 / 114 40% 2 14.07.2027 -
Jacen Russell-Rowe Toulouse FC Actif 126 / 128 40% 1 14.07.2027 -
Jakob Napoleon Romsaas Charleroi Actif 115 / 120 40% 1 13.07.2027 -
Tibe De Vlieger KAA Gent Actif 104 / 115 40% 1 11.07.2027 -
Lucas Ferreira Shakhtar Actif 127 / 124 40% 2 07.07.2027 -
Mohamed Touré Viktoria Plzen Actif 99 / 116 40% 1 07.07.2027 -
Moses Cobnan Krasnodar Actif 115 / 126 40% 2 05.07.2027 -
Vanja Dragojević Partizan Actif 109 / 118 40% 2 05.07.2027 -
Andrija Bulatović RC Lens Actif 131 / 124 40% 1 05.07.2027 -
Milan Roganović Partizan Actif 107 / 126 40% 1 05.07.2027 -
Paulo Cardoso Sporting CP Actif 90 / 96 40% 1 30.06.2027 -
Luís Guilherme Sporting CP Actif 140 / 132 40% 1 30.06.2027 -
Yassine Khalifi Charleroi Actif 107 / 114 40% 2 29.06.2027 -
Borna Knezović Casarano Actif 99 / 107 40% 1 25.06.2027 -
Moctar Diop KAA Gent Actif 123 / 120 40% 2 23.06.2027 -
Facundo Kruspzky Al Wahda Actif 137 / 114 40% 1 23.06.2027 -
Lukáš Mašek Slovan Liberec Actif 115 / 122 40% 2 18.06.2027 -
Malik Mothersille Stockport County Actif 117 / 120 40% 2 17.06.2027 -
David Romero Parma Actif 125 / 125 40% 1 16.06.2027 -
Ryan Oné Sheffield United Actif 115 / 125 40% 1 16.06.2027 -
Tobías Cervera SonderjyskE Actif 123 / 122 40% 2 09.06.2027 -
Myron van Brederode KV Mechelen Actif 120 / 120 40% 1 09.06.2027 -
Dom Ballard Leyton Orient Actif 117 / 130 40% 1 08.06.2027 -
Enis Destan Konyaspor Actif 133 / 133 40% 1 08.06.2027 -
Bogdan Petrović TSC Actif 110 / 106 40% 2 01.06.2027 -
Ethan Williams Peterborough United Actif 113 / 116 40% 1 30.01.2027 -
Tyreece Campbell Charlton Athletic Actif 121 / 118 40% 1 29.01.2027 -
Marezi Portsmouth Actif 118 / 121 40% 1 29.01.2027 -
Kelly Saravanan Salford City Actif 109 / 109 40% 2 27.01.2027 -
Dale Taylor Blackpool Actif 107 / 113 40% 1 26.01.2027 -
Bertuğ Yıldırım Basaksehir Actif 120 / 128 40% 1 24.01.2027 -
Christian Saydee Wigan Athletic Actif 105 / 119 40% 2 21.01.2027 -
Kelvin Flórez Udinese Actif 122 / 124 40% 1 20.01.2027 -
Bradley Fink Wycombe Wanderers Actif 110 / 105 40% 2 12.01.2027 -
Sam Bell Bristol City Actif 111 / 121 40% 1 12.01.2027 -
Renato Júnior Al Wasl Actif 107 / 125 40% 1 05.01.2027 -
Eddie Salcedo OFI Actif 121 / 125 40% 2 30.08.2026 -
Ştefan Baiaram Universitatea Craiova Actif 117 / 123 40% 1 30.08.2026 -
Archie Goodwin Charlotte Football Club Actif 96 / 102 40% 1 24.08.2026 -
Carlos Paraco Metalist Actif 107 / 110 40% 1 24.08.2026 -
Theo Corbeanu Toronto FC Actif 127 / 111 40% 1 22.08.2026 -
Bruno Damiani Philadelphia Union Actif 104 / 105 40% 1 22.08.2026 -
Mihlali Mayambela Omonoia Actif 119 / 127 40% 1 21.08.2026 -
Marcelo Allende Mamelodi Sundowns Actif 119 / 139 40% 1 21.08.2026 -
Andrija Živković PAOK Actif 136 / 133 40% 1 21.08.2026 -
Gaëtan Weissbeck Apollon Actif 107 / 114 40% 2 20.08.2026 -
Carel Eiting Omonoia Actif 134 / 119 40% 1 20.08.2026 -
Bruno Almeida AEL Actif 124 / 120 40% 1 20.08.2026 -
Yaroslav Gladyshev Dinamo Moscow Actif 122 / 119 40% 1 19.08.2026 -
Nikolas Ioannou Pafos Actif 107 / 106 40% 1 19.08.2026 -
Daniel Mancini APOEL Actif 108 / 112 40% 1 19.08.2026 -
Petter Nosa Dahl Rapid Wien Actif 116 / 127 40% 1 17.08.2026 -
Jens Petter Hauge Bodo/Glimt Actif 144 / 140 40% 1 03.08.2026 -
Mads Roerslev Southampton Actif 120 / 127 40% 1 03.08.2026 -